CheckWX is a tool to help pilots better visualize weather data.  It is not intended as a substitute for an official pre-flight weather briefing.

20:37:48 UTC

SCDA METAR
Diego Aracena Airport
Iquique, Chile
Current

38 mins ago

SCDA 162000Z 26010KT 9999 FEW025 17/10 Q1015
Observed
Jul-16 @ 20:00 UTC
Wind
  • 260° at 10 KTS
Visibility
10,000+ meters
Flight Rules
VFR
Cloud Levels
  • Few at 2,500' AGL
Temperature
17°C / 63°F
Dewpoint
10°C / 50°F
Humidity
64%
Altimeter
29.97" Hg
Pressure
1014.92 hPa
Previous

2 hours ago

SCDA 161900Z 24012KT 9999 SCT026 17/10 Q1016
Observed
Jul-16 @ 19:00 UTC
Wind
  • 240° at 12 KTS
Visibility
10,000+ meters
Flight Rules
VFR
Cloud Levels
  • Scattered at 2,600' AGL
Temperature
17°C / 63°F
Dewpoint
10°C / 50°F
Humidity
64%
Altimeter
30" Hg
Pressure
1015.92 hPa
Previous

3 hours ago

SCDA 161800Z 27010KT 9999 FEW030 16/10 Q1016
Observed
Jul-16 @ 18:00 UTC
Wind
  • 270° at 10 KTS
Visibility
10,000+ meters
Flight Rules
VFR
Cloud Levels
  • Few at 3,000' AGL
Temperature
16°C / 61°F
Dewpoint
10°C / 50°F
Humidity
68%
Altimeter
30" Hg
Pressure
1015.92 hPa